createdAt,value
2023-01-23T00:01:16.484Z,82.30
2023-01-23T00:03:47.375Z,82.20
2023-01-23T00:06:24.352Z,82.20
2023-01-23T00:08:52.376Z,82.20
2023-01-23T00:11:23.500Z,82.30
2023-01-23T00:13:52.344Z,82.10
2023-01-23T00:16:23.480Z,82.30
2023-01-23T00:18:52.057Z,82.30
2023-01-23T00:21:21.009Z,82.30
2023-01-23T00:23:50.048Z,82.30
2023-01-23T00:26:20.256Z,82.40
2023-01-23T00:28:50.559Z,82.60
2023-01-23T00:31:21.657Z,82.40
2023-01-23T00:33:54.232Z,82.60
2023-01-23T00:36:24.099Z,82.70
2023-01-23T00:38:52.114Z,82.60
2023-01-23T00:41:21.327Z,82.60
2023-01-23T00:43:52.214Z,82.60
2023-01-23T00:46:20.361Z,82.60
2023-01-23T00:48:48.685Z,82.40
2023-01-23T00:51:18.564Z,82.40
2023-01-23T00:53:46.738Z,82.60
2023-01-23T00:56:15.624Z,82.60
2023-01-23T00:58:45.459Z,82.60
2023-01-23T01:01:15.926Z,82.60
2023-01-23T01:03:44.779Z,82.30
2023-01-23T01:06:13.465Z,82.30
2023-01-23T01:08:42.213Z,82.60
2023-01-23T01:11:11.404Z,82.40
2023-01-23T01:13:40.174Z,82.30
2023-01-23T01:16:10.386Z,82.20
2023-01-23T01:18:40.044Z,82.10
2023-01-23T01:21:08.945Z,82.20
2023-01-23T01:23:37.655Z,82.10
2023-01-23T01:26:06.504Z,82.00
2023-01-23T01:28:35.443Z,82.10
2023-01-23T01:31:06.264Z,82.20
2023-01-23T01:33:34.708Z,82.30
2023-01-23T01:36:04.621Z,82.30
2023-01-23T01:38:34.413Z,82.30
2023-01-23T01:41:02.795Z,82.30
2023-01-23T01:43:30.745Z,82.30
2023-01-23T01:46:11.398Z,82.40
2023-01-23T01:48:41.638Z,82.40
2023-01-23T01:51:14.677Z,82.30
2023-01-23T01:53:43.583Z,82.40
2023-01-23T01:56:17.012Z,82.20
2023-01-23T01:58:47.827Z,82.30
2023-01-23T02:01:16.042Z,82.50
2023-01-23T02:06:25.511Z,82.60
2023-01-23T02:08:58.708Z,82.60
2023-01-23T02:11:27.130Z,82.60
2023-01-23T02:13:57.303Z,82.40
2023-01-23T02:16:27.554Z,82.40
2023-01-23T02:18:59.181Z,82.40
2023-01-23T02:21:29.688Z,82.30
2023-01-23T02:24:22.083Z,82.40
2023-01-23T02:32:28.834Z,82.90
2023-01-23T02:34:58.957Z,82.80
2023-01-23T02:37:30.457Z,82.90
2023-01-23T02:40:04.324Z,83.30
2023-01-23T02:42:39.395Z,83.40
2023-01-23T02:47:44.238Z,83.60
2023-01-23T02:50:13.171Z,83.70
2023-01-23T02:53:04.803Z,83.80
2023-01-23T02:58:18.972Z,84.00
2023-01-23T03:00:47.979Z,84.10
2023-01-23T03:03:17.615Z,84.20
2023-01-23T03:05:48.262Z,84.30
2023-01-23T03:08:17.016Z,84.40
2023-01-23T03:10:47.713Z,84.50
2023-01-23T03:13:16.023Z,84.50
2023-01-23T03:15:44.833Z,84.50
2023-01-23T03:20:47.033Z,84.40
2023-01-23T03:23:16.717Z,84.20
2023-01-23T03:25:45.219Z,84.20
2023-01-23T03:30:49.145Z,83.80
2023-01-23T03:33:17.396Z,83.60
2023-01-23T03:38:39.814Z,83.40
2023-01-23T03:41:28.974Z,83.20
2023-01-23T03:44:00.662Z,83.20
2023-01-23T03:46:29.358Z,83.20
2023-01-23T03:51:51.179Z,83.00
2023-01-23T03:54:20.690Z,82.90
2023-01-23T03:56:54.005Z,82.80
2023-01-23T03:59:44.512Z,82.90
2023-01-23T04:02:13.510Z,82.90
2023-01-23T04:04:41.748Z,82.90
2023-01-23T04:07:10.349Z,83.00
2023-01-23T04:09:41.338Z,82.80
2023-01-23T04:12:11.636Z,82.90
2023-01-23T04:14:47.270Z,82.80
2023-01-23T04:17:16.313Z,82.70
2023-01-23T04:19:47.277Z,82.70
2023-01-23T04:22:16.479Z,82.70
2023-01-23T04:27:22.309Z,82.60
2023-01-23T04:29:51.969Z,82.70
2023-01-23T04:32:20.253Z,82.60
2023-01-23T04:34:49.244Z,82.50
2023-01-23T04:37:17.984Z,82.50
2023-01-23T04:39:49.575Z,82.40
2023-01-23T04:42:22.943Z,82.40
2023-01-23T04:45:12.307Z,82.40
2023-01-23T04:47:54.353Z,82.20
2023-01-23T04:56:10.485Z,82.20
2023-01-23T04:58:39.369Z,82.10
2023-01-23T05:01:09.004Z,82.20
2023-01-23T05:06:22.179Z,82.00
2023-01-23T05:08:52.453Z,81.90
2023-01-23T05:11:27.810Z,81.70
2023-01-23T05:13:56.237Z,81.80
2023-01-23T05:16:27.265Z,82.00
2023-01-23T05:19:02.261Z,81.80
2023-01-23T05:21:34.243Z,81.70
2023-01-23T05:26:48.107Z,81.50
2023-01-23T05:29:17.312Z,81.40
2023-01-23T05:32:26.541Z,81.40
2023-01-23T05:37:50.449Z,81.30
2023-01-23T05:40:22.764Z,81.20
2023-01-23T05:43:03.999Z,81.00
2023-01-23T05:45:49.726Z,81.10
2023-01-23T05:51:22.682Z,81.00
2023-01-23T05:53:52.467Z,81.10
2023-01-23T05:56:24.535Z,81.00
2023-01-23T05:59:14.222Z,81.10
2023-01-23T06:01:54.094Z,80.80
2023-01-23T06:04:43.193Z,81.00
2023-01-23T06:10:12.988Z,80.80
2023-01-23T06:12:41.221Z,80.80
2023-01-23T06:17:49.943Z,81.00
2023-01-23T06:20:20.179Z,80.90
2023-01-23T06:22:48.938Z,80.70
2023-01-23T06:28:26.793Z,80.70
2023-01-23T06:31:20.543Z,80.70
2023-01-23T06:33:56.992Z,80.60
2023-01-23T06:36:31.284Z,80.50
2023-01-23T06:39:00.659Z,80.50
2023-01-23T06:41:35.393Z,80.50
2023-01-23T06:46:42.251Z,80.50
2023-01-23T06:49:26.580Z,80.40
2023-01-23T06:51:55.894Z,80.50
2023-01-23T06:54:27.083Z,80.50
2023-01-23T06:57:02.392Z,80.40
2023-01-23T06:59:32.358Z,80.50
2023-01-23T07:02:01.051Z,80.30
2023-01-23T07:04:42.258Z,80.30
2023-01-23T07:07:12.254Z,80.50
2023-01-23T07:12:33.389Z,80.60
2023-01-23T07:15:01.799Z,80.60
2023-01-23T07:17:32.278Z,80.70
2023-01-23T07:20:02.564Z,81.20
2023-01-23T07:22:31.443Z,81.20
2023-01-23T07:25:00.088Z,81.20
2023-01-23T07:27:30.273Z,81.30
2023-01-23T07:29:58.442Z,81.30
2023-01-23T07:32:27.017Z,81.30
2023-01-23T07:34:58.605Z,81.20
2023-01-23T07:37:52.059Z,81.00
2023-01-23T07:40:23.466Z,81.00
2023-01-23T07:42:55.218Z,81.00
2023-01-23T07:45:23.893Z,81.00
2023-01-23T07:47:52.011Z,80.70
2023-01-23T07:50:44.192Z,80.40
2023-01-23T07:55:52.007Z,80.20
2023-01-23T07:58:22.102Z,80.00
2023-01-23T08:00:50.636Z,80.10
2023-01-23T08:05:53.037Z,80.30
2023-01-23T08:08:21.662Z,80.40
2023-01-23T08:16:01.423Z,80.30
2023-01-23T08:18:31.039Z,80.20
2023-01-23T08:21:01.287Z,80.20
2023-01-23T08:26:03.264Z,79.90
2023-01-23T08:28:34.956Z,80.00
2023-01-23T08:31:25.246Z,79.80
2023-01-23T08:34:18.144Z,79.60
2023-01-23T08:39:29.990Z,79.40
2023-01-23T08:42:00.411Z,79.50
2023-01-23T08:44:34.692Z,79.20
2023-01-23T08:47:04.871Z,79.60
2023-01-23T08:49:35.035Z,79.20
2023-01-23T08:52:05.470Z,79.00
2023-01-23T08:54:34.148Z,78.90
2023-01-23T08:57:03.155Z,78.60
2023-01-23T08:59:31.799Z,78.40
2023-01-23T09:02:00.372Z,78.20
2023-01-23T09:12:30.594Z,77.80
2023-01-23T09:14:59.882Z,77.50
2023-01-23T09:17:50.935Z,77.70
2023-01-23T09:20:25.942Z,77.50
2023-01-23T09:25:36.588Z,77.70
2023-01-23T09:28:04.793Z,77.60
2023-01-23T09:30:34.490Z,77.60
2023-01-23T09:35:40.501Z,77.20
2023-01-23T09:38:08.870Z,77.20
2023-01-23T09:43:48.612Z,76.70
2023-01-23T09:46:23.072Z,76.80
2023-01-23T09:51:54.344Z,76.70
2023-01-23T09:54:52.307Z,76.40
2023-01-23T09:57:43.551Z,75.80
2023-01-23T10:00:14.659Z,75.60
2023-01-23T10:02:44.900Z,75.60
2023-01-23T10:05:15.771Z,75.10
2023-01-23T10:13:08.646Z,75.40
2023-01-23T10:15:48.257Z,75.10
2023-01-23T10:21:06.465Z,74.90
2023-01-23T10:23:47.386Z,74.90
2023-01-23T10:26:17.445Z,75.40
2023-01-23T10:28:45.790Z,74.30
2023-01-23T10:31:42.508Z,74.80
2023-01-23T10:37:03.908Z,75.40
2023-01-23T10:39:41.021Z,75.50
2023-01-23T10:42:10.917Z,75.30
2023-01-23T10:45:04.835Z,74.70
2023-01-23T10:50:42.217Z,75.20
2023-01-23T10:53:21.077Z,75.30
2023-01-23T10:55:49.930Z,75.00
2023-01-23T10:58:27.684Z,75.40
2023-01-23T11:00:56.089Z,75.50
2023-01-23T11:03:33.403Z,75.70
2023-01-23T11:06:10.092Z,75.70
2023-01-23T11:11:25.086Z,75.90
2023-01-23T11:13:59.393Z,76.00
2023-01-23T11:16:30.880Z,75.60
2023-01-23T11:19:09.333Z,75.50
2023-01-23T11:24:27.818Z,76.00
2023-01-23T11:29:59.656Z,75.90
2023-01-23T11:32:33.522Z,76.00
2023-01-23T11:35:08.622Z,75.50
2023-01-23T11:37:40.873Z,75.20
2023-01-23T11:40:12.505Z,75.50
2023-01-23T11:43:05.227Z,75.60
2023-01-23T11:45:53.974Z,74.90
2023-01-23T11:48:25.972Z,74.90
2023-01-23T11:50:58.329Z,75.10
2023-01-23T11:53:41.811Z,75.30
2023-01-23T11:59:44.797Z,74.80
2023-01-23T12:05:08.966Z,74.70
2023-01-23T12:07:41.405Z,74.60
2023-01-23T12:13:15.215Z,74.60
2023-01-23T12:15:56.014Z,74.30
2023-01-23T12:18:27.009Z,74.20
2023-01-23T12:21:01.705Z,74.20
2023-01-23T12:26:16.550Z,73.30
2023-01-23T12:31:35.222Z,74.20
2023-01-23T12:34:11.639Z,73.90
2023-01-23T12:37:08.235Z,73.80
2023-01-23T12:48:14.304Z,73.60
2023-01-23T12:53:35.034Z,72.10
2023-01-23T12:56:05.512Z,70.80
2023-01-23T12:58:37.153Z,70.80
2023-01-23T13:01:09.738Z,69.40
2023-01-23T13:03:57.847Z,69.50
2023-01-23T13:06:27.698Z,69.30
2023-01-23T13:09:12.501Z,69.50
2023-01-23T13:12:06.394Z,68.80
2023-01-23T13:15:03.502Z,70.00
2023-01-23T13:20:32.873Z,66.80
2023-01-23T13:23:18.914Z,65.40
2023-01-23T13:25:50.723Z,64.60
2023-01-23T13:28:44.025Z,64.50
2023-01-23T13:31:26.377Z,65.90
2023-01-23T13:34:06.722Z,66.80
2023-01-23T13:36:43.235Z,67.80
2023-01-23T13:39:22.846Z,68.30
2023-01-23T13:42:11.715Z,69.50
2023-01-23T13:45:02.296Z,69.80
2023-01-23T14:27:22.025Z,64.30
2023-01-23T14:32:30.265Z,64.70
2023-01-23T14:43:22.494Z,68.80
2023-01-23T14:45:54.032Z,70.00
2023-01-23T14:48:22.486Z,70.30
2023-01-23T14:50:51.078Z,70.60
2023-01-23T14:53:19.545Z,71.00
2023-01-23T14:55:52.636Z,71.90
2023-01-23T14:58:23.682Z,71.80
2023-01-23T15:00:55.208Z,72.10
2023-01-23T15:03:44.408Z,72.40
2023-01-23T15:06:17.465Z,72.80
2023-01-23T15:08:46.693Z,73.70
2023-01-23T15:11:18.064Z,74.00
2023-01-23T15:13:50.287Z,74.50
2023-01-23T15:16:22.851Z,74.70
2023-01-23T15:18:56.691Z,75.10
2023-01-23T15:21:30.671Z,75.20
2023-01-23T15:24:06.047Z,75.00
2023-01-23T15:26:36.708Z,75.40
2023-01-23T15:29:06.613Z,75.60
2023-01-23T15:31:36.634Z,75.80
2023-01-23T15:34:19.628Z,75.90
2023-01-23T15:36:49.403Z,76.00
2023-01-23T15:39:20.227Z,76.20
2023-01-23T15:41:52.678Z,76.30
2023-01-23T15:44:28.716Z,76.40
2023-01-23T15:49:41.014Z,76.80
2023-01-23T15:52:19.016Z,77.10
2023-01-23T15:54:49.249Z,77.10
2023-01-23T16:00:31.699Z,77.30
2023-01-23T16:03:01.824Z,77.60
2023-01-23T16:05:36.499Z,77.80
2023-01-23T16:10:46.997Z,78.20
2023-01-23T16:13:16.030Z,78.60
2023-01-23T16:15:44.345Z,78.70
2023-01-23T16:18:16.091Z,79.00
2023-01-23T16:20:45.212Z,79.20
2023-01-23T16:23:17.056Z,79.30
2023-01-23T16:25:47.086Z,79.40
2023-01-23T16:28:15.694Z,79.60
2023-01-23T16:30:44.320Z,79.80
2023-01-23T16:33:14.458Z,79.90
2023-01-23T16:35:43.368Z,79.90
2023-01-23T16:38:15.039Z,80.10
2023-01-23T16:43:18.457Z,80.30
2023-01-23T16:45:47.190Z,80.30
2023-01-23T16:48:26.466Z,80.50
2023-01-23T16:50:56.930Z,80.60
2023-01-23T16:53:26.651Z,80.70
2023-01-23T16:55:55.261Z,80.80
2023-01-23T16:58:27.344Z,80.90
2023-01-23T17:00:58.081Z,81.00
2023-01-23T17:06:00.701Z,81.10
2023-01-23T17:08:29.304Z,81.20
2023-01-23T17:10:59.077Z,81.20
2023-01-23T17:13:31.042Z,81.20
2023-01-23T17:18:31.617Z,81.20
2023-01-23T17:21:00.837Z,81.30
2023-01-23T17:29:00.315Z,81.40
2023-01-23T17:31:29.842Z,81.40
2023-01-23T17:33:58.204Z,81.40
2023-01-23T17:36:26.670Z,81.40
2023-01-23T17:38:55.856Z,81.50
2023-01-23T17:41:24.472Z,81.50
2023-01-23T17:43:53.047Z,81.60
2023-01-23T17:46:24.469Z,81.70
2023-01-23T17:48:56.768Z,81.70
2023-01-23T17:51:25.955Z,81.70
2023-01-23T17:53:55.287Z,81.80
2023-01-23T17:56:23.896Z,81.80
2023-01-23T17:58:52.064Z,81.80
2023-01-23T18:01:22.246Z,81.90
2023-01-23T18:03:55.453Z,81.90
2023-01-23T18:06:24.992Z,81.90
2023-01-23T18:08:53.533Z,81.90
2023-01-23T18:11:26.864Z,82.00
2023-01-23T18:14:05.020Z,82.00
2023-01-23T18:16:41.699Z,82.00
2023-01-23T18:19:16.739Z,82.00
2023-01-23T18:24:37.931Z,82.10
2023-01-23T18:27:15.267Z,82.30
2023-01-23T18:30:06.765Z,82.40
2023-01-23T18:32:58.337Z,82.50
2023-01-23T18:35:35.128Z,82.60
2023-01-23T18:41:08.336Z,82.60
2023-01-23T18:43:40.163Z,82.60
2023-01-23T18:46:12.080Z,82.70
2023-01-23T18:51:25.321Z,82.70
2023-01-23T18:53:57.768Z,82.70
2023-01-23T18:56:32.104Z,82.70
2023-01-23T18:59:25.872Z,82.70
2023-01-23T19:01:57.893Z,82.70
2023-01-23T19:04:32.146Z,82.80
2023-01-23T19:07:02.480Z,82.70
2023-01-23T19:09:34.485Z,82.80
2023-01-23T19:12:20.543Z,82.80
2023-01-23T19:15:12.027Z,82.80
2023-01-23T19:17:53.880Z,82.80
2023-01-23T19:20:28.466Z,82.90
2023-01-23T19:23:03.209Z,83.00
2023-01-23T19:25:36.692Z,83.00
2023-01-23T19:28:07.803Z,83.00
2023-01-23T19:33:13.513Z,83.00
2023-01-23T19:35:41.920Z,83.00
2023-01-23T19:38:36.067Z,83.10
2023-01-23T19:44:16.415Z,83.20
2023-01-23T19:49:22.633Z,83.30
2023-01-23T19:51:53.091Z,83.30
2023-01-23T19:54:25.367Z,83.30
2023-01-23T19:59:29.569Z,83.30
2023-01-23T20:01:58.437Z,83.50
2023-01-23T20:04:58.745Z,83.50
2023-01-23T20:07:30.329Z,83.60
2023-01-23T20:10:00.478Z,83.60
2023-01-23T20:12:30.009Z,83.60
2023-01-23T20:15:00.069Z,83.50
2023-01-23T20:17:30.450Z,83.40
2023-01-23T20:20:24.676Z,83.40
2023-01-23T20:25:36.037Z,83.20
2023-01-23T20:28:04.647Z,83.00
2023-01-23T20:30:36.620Z,82.80
2023-01-23T20:33:07.682Z,82.70
2023-01-23T20:35:38.898Z,82.50
2023-01-23T20:38:08.120Z,82.40
2023-01-23T20:41:00.659Z,82.30
2023-01-23T20:43:29.987Z,82.20
2023-01-23T20:46:00.209Z,82.10
2023-01-23T20:48:28.568Z,82.00
2023-01-23T20:53:41.306Z,81.70
2023-01-23T20:56:10.817Z,81.80
2023-01-23T20:58:48.125Z,81.70
2023-01-23T21:01:16.818Z,81.60
2023-01-23T21:06:41.843Z,81.50
2023-01-23T21:09:34.474Z,81.40
2023-01-23T21:17:46.379Z,81.30
2023-01-23T21:20:17.345Z,81.20
2023-01-23T21:22:46.512Z,81.30
2023-01-23T21:25:15.102Z,81.30
2023-01-23T21:30:16.388Z,81.20
2023-01-23T21:32:50.287Z,81.20
2023-01-23T21:35:23.890Z,81.10
2023-01-23T21:37:53.097Z,81.10
2023-01-23T21:40:22.865Z,81.20
2023-01-23T21:45:46.807Z,81.00
2023-01-23T21:48:15.591Z,81.10
2023-01-23T21:50:45.511Z,81.10
2023-01-23T21:53:36.221Z,81.10
2023-01-23T21:56:08.880Z,81.00
2023-01-23T21:58:37.619Z,81.20
2023-01-23T22:04:14.663Z,81.20
2023-01-23T22:06:47.006Z,81.00
2023-01-23T22:12:02.073Z,80.80
2023-01-23T22:14:30.630Z,80.80
2023-01-23T22:16:58.777Z,80.80
2023-01-23T22:19:26.925Z,80.80
2023-01-23T22:21:55.561Z,80.80
2023-01-23T22:24:24.334Z,80.80
2023-01-23T22:29:45.426Z,80.70
2023-01-23T22:32:15.827Z,80.60
2023-01-23T22:34:44.922Z,80.60
2023-01-23T22:37:17.414Z,80.70
2023-01-23T22:42:25.820Z,80.50
2023-01-23T22:44:54.000Z,80.50
2023-01-23T22:47:26.017Z,80.40
2023-01-23T22:50:19.331Z,80.40
2023-01-23T22:55:33.941Z,80.50
2023-01-23T22:58:04.010Z,80.50
2023-01-23T23:00:35.617Z,80.30
2023-01-23T23:03:03.807Z,80.30
2023-01-23T23:05:34.119Z,80.40
2023-01-23T23:08:05.292Z,80.30
2023-01-23T23:13:45.121Z,80.20
2023-01-23T23:19:49.278Z,80.40
2023-01-23T23:27:40.666Z,80.30
2023-01-23T23:30:19.503Z,80.40
2023-01-23T23:38:38.599Z,80.30
2023-01-23T23:44:10.535Z,80.30
2023-01-23T23:52:36.879Z,80.00
2023-01-23T23:55:11.208Z,79.80
